Time;durP1;ratioP1;P1;durP2;ratioP2;P2;SDS_P1;SDS_P2;PMS_P1;PMS_P2;Temp;Humidity;BMP_temperature;BMP_pressure;BME280_temperature;BME280_humidity;BME280_pressure;Samples;Min_cycle;Max_cycle;Signal;HPM_P1;HPM_P2
2022/11/02 00:00:12;;;;;;;404.27;267.60;;;;;;;14.37;68.52;100157.94;325411;30;1941;-71
2022/11/02 00:00:22;;;;;;;405.13;270.05;;;;;;;14.35;68.61;100152.72;324713;30;2412;-71
2022/11/02 00:00:33;;;;;;;407.40;273.15;;;;;;;14.36;68.48;100156.22;324393;30;2572;-71
2022/11/02 00:00:44;;;;;;;407.90;271.53;;;;;;;14.36;68.33;100156.22;326821;30;898;-71
2022/11/02 00:00:54;;;;;;;408.92;269.02;;;;;;;14.35;68.65;100154.50;326488;30;2205;-71
2022/11/02 00:01:24;;;;;;;408.83;269.83;;;;;;;14.37;68.42;100153.50;324815;30;2705;-71
2022/11/02 00:01:42;;;;;;;408.30;277.25;;;;;;;14.36;68.77;100151.81;324778;30;1260;-71
2022/11/02 00:01:52;;;;;;;407.50;273.98;;;;;;;14.35;68.67;100157.16;322113;30;2115;-71
2022/11/02 00:02:02;;;;;;;405.63;271.05;;;;;;;14.35;68.29;100154.50;320485;30;3025;-71
2022/11/02 00:02:13;;;;;;;406.43;270.90;;;;;;;14.34;68.37;100153.66;322200;30;876;-71
2022/11/02 00:02:23;;;;;;;410.67;272.50;;;;;;;14.33;68.52;100152.81;323076;30;2637;-71
2022/11/02 00:02:34;;;;;;;414.07;276.73;;;;;;;14.35;68.54;100157.16;321361;30;3398;-71
2022/11/02 00:02:44;;;;;;;413.83;278.15;;;;;;;14.35;68.29;100149.25;318883;30;2222;-71
2022/11/02 00:02:55;;;;;;;412.67;279.07;;;;;;;14.35;68.35;100157.16;319725;30;3556;-70
2022/11/02 00:03:05;;;;;;;407.10;276.85;;;;;;;14.33;68.43;100152.81;318841;30;3133;-71
2022/11/02 00:03:16;;;;;;;407.20;281.07;;;;;;;14.35;68.25;100154.50;319850;30;1027;-71
2022/11/02 00:03:27;;;;;;;407.83;279.23;;;;;;;14.37;68.24;100150.03;313830;31;3270;-71
2022/11/02 00:03:37;;;;;;;410.00;279.98;;;;;;;14.35;68.14;100149.25;313472;31;2565;-71
2022/11/02 00:03:48;;;;;;;408.08;273.67;;;;;;;14.36;68.42;100156.22;313851;31;3091;-71
2022/11/02 00:03:58;;;;;;;406.47;276.70;;;;;;;14.31;68.49;100152.03;312949;31;978;-71
2022/11/02 00:04:09;;;;;;;407.75;275.35;;;;;;;14.32;68.35;100151.09;309849;31;2848;-72
2022/11/02 00:04:19;;;;;;;410.40;273.90;;;;;;;14.31;68.28;100149.38;309711;31;3535;-71
2022/11/02 00:04:29;;;;;;;411.40;268.73;;;;;;;14.30;68.56;100158.22;314027;31;1174;-71
2022/11/02 00:04:40;;;;;;;409.88;271.88;;;;;;;14.30;68.65;100150.31;310409;31;3617;-72
2022/11/02 00:04:50;;;;;;;407.00;277.33;;;;;;;14.30;68.63;100152.94;310014;31;5321;-71
2022/11/02 00:05:01;;;;;;;408.38;280.23;;;;;;;14.31;68.49;100146.75;311965;31;1600;-71
2022/11/02 00:05:12;;;;;;;406.57;275.73;;;;;;;14.31;68.65;100152.03;308859;31;4843;-72
2022/11/02 00:05:23;;;;;;;407.40;275.13;;;;;;;14.33;68.76;100152.81;309192;31;4587;-72
2022/11/02 00:05:34;;;;;;;409.25;274.88;;;;;;;14.33;68.49;100155.44;306388;31;5353;-72
2022/11/02 00:05:44;;;;;;;408.97;272.30;;;;;;;14.33;68.59;100146.69;307586;32;851;-72
2022/11/02 00:05:54;;;;;;;408.77;271.45;;;;;;;14.33;68.69;100152.81;302646;32;3592;-72
2022/11/02 00:06:05;;;;;;;407.60;276.17;;;;;;;14.32;68.38;100151.09;304747;31;3383;-72
2022/11/02 00:06:15;;;;;;;407.17;277.60;;;;;;;14.29;68.53;100148.66;308150;32;894;-71
2022/11/02 00:06:25;;;;;;;411.33;284.40;;;;;;;14.28;68.67;100152.19;302159;32;4304;-71
2022/11/02 00:06:36;;;;;;;410.53;284.90;;;;;;;14.25;68.43;100149.72;306323;31;5075;-71
2022/11/02 00:06:46;;;;;;;412.70;283.80;;;;;;;14.28;68.78;100148.72;311935;31;1327;-71
2022/11/02 00:06:57;;;;;;;412.53;277.63;;;;;;;14.26;68.68;100151.41;307316;32;1208;-71
2022/11/02 00:07:07;;;;;;;412.88;275.20;;;;;;;14.26;68.86;100150.56;302063;32;6709;-71
2022/11/02 00:07:17;;;;;;;412.47;273.10;;;;;;;14.26;68.51;100151.41;298364;32;6452;-71
2022/11/02 00:07:28;;;;;;;407.33;271.75;;;;;;;14.26;68.57;100146.16;302022;32;5072;-71
2022/11/02 00:07:39;;;;;;;410.13;276.23;;;;;;;14.28;68.67;100152.19;301781;32;6579;-71
2022/11/02 00:07:52;;;;;;;411.15;280.67;;;;;;;14.28;68.58;100154.84;300415;32;6441;-71
2022/11/02 00:08:03;;;;;;;410.50;275.92;;;;;;;14.29;68.73;100148.66;299190;32;4623;-72
2022/11/02 00:08:13;;;;;;;409.23;272.77;;;;;;;14.30;68.35;100152.94;298922;33;923;-72
2022/11/02 00:08:24;;;;;;;408.90;271.47;;;;;;;14.30;68.49;100152.94;292015;33;4949;-72
2022/11/02 00:08:34;;;;;;;409.13;270.33;;;;;;;14.30;68.44;100152.94;289982;33;6322;-72
2022/11/02 00:08:44;;;;;;;409.08;274.08;;;;;;;14.30;68.44;100146.81;295118;33;879;-72
2022/11/02 00:08:55;;;;;;;410.83;277.43;;;;;;;14.28;68.32;100149.56;288795;33;6275;-72
2022/11/02 00:09:05;;;;;;;411.33;280.73;;;;;;;14.28;68.66;100151.34;289260;33;7347;-72
2022/11/02 00:09:16;;;;;;;415.27;281.63;;;;;;;14.26;68.72;100151.41;290227;34;1418;-72
2022/11/02 00:09:26;;;;;;;416.13;288.40;;;;;;;14.28;68.65;100151.34;288093;34;9661;-72
2022/11/02 00:09:36;;;;;;;417.23;290.37;;;;;;;14.29;68.54;100147.78;288373;34;9364;-71
2022/11/02 00:11:29;;;;;;;404.72;257.65;;;;;;;14.25;68.32;100149.72;2496650;27;20497;-70
2022/11/02 00:11:40;;;;;;;414.93;273.40;;;;;;;14.28;68.44;100148.72;353126;28;935;-71
2022/11/02 00:11:50;;;;;;;416.50;276.33;;;;;;;14.28;68.38;100144.31;351877;28;811;-71
2022/11/02 00:12:01;;;;;;;417.63;279.43;;;;;;;14.26;68.86;100153.19;349164;28;1163;-71
2022/11/02 00:12:11;;;;;;;421.05;278.25;;;;;;;14.25;68.64;100147.06;349067;28;889;-71
2022/11/02 00:12:22;;;;;;;421.73;273.70;;;;;;;14.27;68.62;100153.13;347644;28;1303;-71
2022/11/02 00:12:32;;;;;;;426.55;270.58;;;;;;;14.25;68.35;100149.72;347519;28;1625;-71
2022/11/02 00:12:43;;;;;;;424.87;275.00;;;;;;;14.26;68.38;100147.94;348998;28;1242;-71
2022/11/02 00:12:54;;;;;;;422.08;271.33;;;;;;;14.27;70.07;100150.50;347502;28;1705;-71
2022/11/02 00:13:04;;;;;;;421.05;270.75;;;;;;;14.26;69.30;100148.78;347300;28;1400;-71
2022/11/02 00:13:14;;;;;;;420.57;270.97;;;;;;;14.23;68.90;100146.28;347413;28;2223;-71
2022/11/02 00:13:25;;;;;;;417.58;274.40;;;;;;;14.19;68.81;100152.63;348463;28;883;-71
2022/11/02 00:13:35;;;;;;;416.40;277.87;;;;;;;14.18;68.97;100152.69;347624;28;897;-71
2022/11/02 00:13:46;;;;;;;417.63;275.38;;;;;;;14.17;68.93;100151.00;347568;28;1526;-71
2022/11/02 00:13:56;;;;;;;418.87;274.83;;;;;;;14.17;69.07;100156.25;347533;28;1537;-70
2022/11/02 00:14:06;;;;;;;415.88;270.90;;;;;;;14.15;69.04;100156.34;345731;28;2079;-70
2022/11/02 00:14:18;;;;;;;414.03;274.40;;;;;;;14.15;69.24;100151.06;344905;28;1193;-71
2022/11/02 00:14:28;;;;;;;414.42;274.15;;;;;;;14.15;69.56;100153.69;346203;28;908;-70
2022/11/02 00:14:39;;;;;;;414.47;278.30;;;;;;;14.16;69.07;100155.41;347770;28;1678;-70
2022/11/02 00:14:49;;;;;;;422.05;282.50;;;;;;;14.13;68.86;100150.28;347728;28;883;-70
2022/11/02 00:14:59;;;;;;;426.13;284.67;;;;;;;14.13;68.92;100150.28;347598;28;1383;-70
2022/11/02 00:15:10;;;;;;;425.60;279.80;;;;;;;14.14;68.96;100149.34;345984;28;1240;-70
2022/11/02 00:15:21;;;;;;;420.70;271.80;;;;;;;14.16;69.12;100155.41;346371;28;1166;-70
2022/11/02 00:15:32;;;;;;;417.05;269.05;;;;;;;14.18;69.22;100148.28;344958;28;946;-70
2022/11/02 00:15:42;;;;;;;415.27;273.65;;;;;;;14.20;68.91;100143.81;347183;28;1496;-70
2022/11/02 00:15:53;;;;;;;412.67;279.67;;;;;;;14.19;68.92;100150.00;346181;28;1088;-71
2022/11/02 00:16:04;;;;;;;416.55;277.00;;;;;;;14.19;69.09;100150.00;344854;28;1311;-72
2022/11/02 00:16:15;;;;;;;415.78;278.06;;;;;;;14.18;69.48;100153.56;344769;28;1643;-71
2022/11/02 00:16:25;;;;;;;412.37;277.30;;;;;;;14.15;69.30;100143.16;344464;28;851;-72
2022/11/02 00:16:36;;;;;;;410.20;282.15;;;;;;;14.11;68.90;100151.28;342885;28;2695;-71
2022/11/02 00:16:47;;;;;;;410.27;283.52;;;;;;;14.12;69.19;100153.84;342845;28;4609;-71
2022/11/02 00:16:57;;;;;;;411.33;285.00;;;;;;;14.11;69.17;100152.13;344326;28;5040;-71
2022/11/02 00:17:08;;;;;;;413.40;285.73;;;;;;;14.11;69.18;100152.13;345828;28;1699;-71
2022/11/02 00:17:18;;;;;;;414.10;281.60;;;;;;;14.13;69.19;100152.06;346257;28;3349;-71
2022/11/02 00:17:28;;;;;;;414.03;276.53;;;;;;;14.14;69.28;100154.63;339378;28;1228;-71
2022/11/02 00:17:40;;;;;;;411.70;276.53;;;;;;;14.16;69.07;100158.03;336927;29;1227;-71
2022/11/02 00:17:53;;;;;;;412.10;276.86;;;;;;;14.16;68.88;100151.91;341303;28;1140;-71
2022/11/02 00:18:06;;;;;;;414.08;280.20;;;;;;;14.16;69.04;100154.56;339591;29;2002;-71
2022/11/02 00:18:17;;;;;;;410.95;277.08;;;;;;;14.16;68.88;100155.41;342208;28;1138;-71
2022/11/02 00:18:27;;;;;;;419.58;276.88;;;;;;;14.16;69.00;100155.41;341807;28;1529;-71
2022/11/02 00:18:38;;;;;;;421.30;274.73;;;;;;;14.15;69.25;100152.84;344833;28;884;-71
2022/11/02 00:18:51;;;;;;;422.60;276.37;;;;;;;14.15;69.16;100153.69;344960;28;887;-71
2022/11/02 00:19:01;;;;;;;413.90;273.98;;;;;;;14.17;69.16;100158.88;340720;28;1859;-71
2022/11/02 00:19:12;;;;;;;413.97;273.00;;;;;;;14.16;69.12;100155.41;341401;28;1602;-71
2022/11/02 00:19:22;;;;;;;415.63;268.88;;;;;;;14.17;68.88;100157.13;343790;28;1332;-71
2022/11/02 00:19:33;;;;;;;411.30;266.87;;;;;;;14.17;68.97;100154.47;339515;29;1188;-71
2022/11/02 00:19:43;;;;;;;410.85;263.75;;;;;;;14.17;68.78;100157.13;339417;29;1716;-70
2022/11/02 00:19:53;;;;;;;410.70;267.60;;;;;;;14.17;69.07;100154.47;337865;29;1344;-70
2022/11/02 00:20:04;;;;;;;413.63;273.25;;;;;;;14.19;68.93;100155.25;335395;29;1621;-71
2022/11/02 00:20:16;;;;;;;415.75;272.80;;;;;;;14.20;68.70;100156.97;337144;29;1345;-71
2022/11/02 00:20:26;;;;;;;412.52;275.70;;;;;;;14.20;68.60;100156.97;337659;29;1976;-71
2022/11/02 00:20:38;;;;;;;411.33;275.02;;;;;;;14.21;68.90;100153.41;339008;29;1433;-71
2022/11/02 00:20:48;;;;;;;413.67;279.63;;;;;;;14.21;68.65;100153.41;340763;29;1289;-71
2022/11/02 00:20:58;;;;;;;408.58;271.05;;;;;;;14.20;68.87;100149.06;338277;29;962;-71
2022/11/02 00:21:09;;;;;;;408.77;272.00;;;;;;;14.17;68.94;100151.84;337435;29;957;-70
2022/11/02 00:21:20;;;;;;;409.83;271.00;;;;;;;14.18;68.96;100152.69;335154;29;1945;-70
2022/11/02 00:21:30;;;;;;;412.98;274.02;;;;;;;14.17;69.07;100151.84;334412;29;888;-70
2022/11/02 00:21:41;;;;;;;409.37;275.40;;;;;;;14.17;69.15;100149.22;330521;29;1965;-70
2022/11/02 00:21:51;;;;;;;406.27;274.13;;;;;;;14.16;68.96;100152.78;330564;29;1878;-70
2022/11/02 00:22:02;;;;;;;405.30;274.20;;;;;;;14.16;68.93;100154.56;329420;30;923;-70
2022/11/02 00:22:12;;;;;;;407.20;273.80;;;;;;;14.14;69.16;100152.00;330214;29;2093;-71
2022/11/02 00:22:23;;;;;;;405.63;272.43;;;;;;;14.11;68.98;100157.41;328467;30;2164;-70
2022/11/02 00:22:34;;;;;;;406.73;273.52;;;;;;;14.09;69.08;100153.97;328285;30;929;-71
2022/11/02 00:22:45;;;;;;;404.48;269.42;;;;;;;14.06;69.50;100154.13;325733;30;1553;-71
2022/11/02 00:22:57;;;;;;;408.95;273.60;;;;;;;14.06;69.02;100154.13;325497;30;1057;-71
2022/11/02 00:23:09;;;;;;;408.30;273.20;;;;;;;14.06;69.33;100158.53;324143;30;1709;-71
2022/11/02 00:23:20;;;;;;;409.52;273.15;;;;;;;14.04;69.05;100155.97;322532;30;1624;-70
2022/11/02 00:23:30;;;;;;;407.80;271.37;;;;;;;14.03;69.27;100156.91;319758;30;1445;-70
2022/11/02 00:23:40;;;;;;;408.27;268.40;;;;;;;14.04;69.37;100155.13;327610;29;1930;-70
2022/11/02 00:23:51;;;;;;;405.67;268.00;;;;;;;14.03;69.06;100154.25;326692;30;2548;-70
2022/11/02 00:24:02;;;;;;;404.67;265.27;;;;;;;14.02;69.35;100157.81;325688;30;1274;-70
2022/11/02 00:24:12;;;;;;;403.60;266.03;;;;;;;14.04;69.28;100150.72;320086;30;2484;-70
2022/11/02 00:24:22;;;;;;;407.63;269.42;;;;;;;14.04;69.43;100155.97;322477;29;2555;-70
2022/11/02 00:24:33;;;;;;;404.97;269.33;;;;;;;14.05;69.28;100152.41;324614;30;872;-70
2022/11/02 00:24:43;;;;;;;407.73;277.70;;;;;;;14.06;69.39;100151.50;327794;30;2536;-70
2022/11/02 00:24:54;;;;;;;405.97;276.30;;;;;;;14.05;69.27;100149.78;327930;30;1799;-70
2022/11/02 00:25:05;;;;;;;409.37;275.67;;;;;;;14.07;69.35;100147.94;329103;30;1317;-70
2022/11/02 00:25:17;;;;;;;407.85;270.30;;;;;;;14.09;69.34;100153.13;328441;30;1173;-70
2022/11/02 00:25:27;;;;;;;408.52;272.27;;;;;;;14.08;69.14;100147.00;326288;30;1925;-70
2022/11/02 00:25:39;;;;;;;404.75;276.98;;;;;;;14.08;69.00;100149.63;323568;30;2347;-71
2022/11/02 00:25:49;;;;;;;404.64;281.12;;;;;;;14.07;69.11;100147.94;321221;30;3621;-71
2022/11/02 00:26:00;;;;;;;406.60;281.13;;;;;;;14.07;69.34;100152.34;317993;30;3257;-71
2022/11/02 00:26:10;;;;;;;405.80;278.58;;;;;;;14.09;69.14;100151.34;317616;30;4819;-71
2022/11/02 00:26:20;;;;;;;406.37;276.70;;;;;;;14.06;68.99;100148.84;314817;31;3475;-71
2022/11/02 00:26:31;;;;;;;405.67;274.30;;;;;;;14.08;69.10;100147.00;313880;31;3355;-71
2022/11/02 00:26:42;;;;;;;405.75;273.10;;;;;;;14.08;68.96;100156.69;313364;31;3417;-71
2022/11/02 00:26:52;;;;;;;406.77;277.83;;;;;;;14.08;69.26;100147.00;315021;31;3335;-71
2022/11/02 00:27:02;;;;;;;409.63;282.13;;;;;;;14.07;69.14;100147.94;317536;31;1020;-70
2022/11/02 00:27:13;;;;;;;409.23;280.05;;;;;;;14.05;69.07;100147.16;321516;30;2519;-69
2022/11/02 00:27:23;;;;;;;408.10;276.73;;;;;;;14.05;69.24;100147.16;320937;30;3131;-70
2022/11/02 00:27:34;;;;;;;407.73;275.80;;;;;;;14.06;69.18;100137.47;318011;30;2798;-71
2022/11/02 00:27:44;;;;;;;407.47;278.43;;;;;;;14.06;68.98;100143.59;316307;31;1779;-70
2022/11/02 00:27:55;;;;;;;407.20;278.08;;;;;;;14.05;68.99;100152.41;315844;31;3376;-70
2022/11/02 00:28:05;;;;;;;405.20;274.27;;;;;;;14.06;69.35;100148.00;314193;31;4071;-71
2022/11/02 00:28:16;;;;;;;404.70;272.50;;;;;;;14.06;69.33;100143.59;309760;31;1699;-72
2022/11/02 00:28:27;;;;;;;403.42;273.52;;;;;;;14.06;69.01;100148.84;309463;31;4894;-71
2022/11/02 00:28:37;;;;;;;402.83;278.70;;;;;;;14.06;69.44;100142.75;311585;31;4730;-71
2022/11/02 00:28:47;;;;;;;401.95;279.60;;;;;;;14.04;69.24;100145.44;315270;31;894;-71
2022/11/02 00:28:58;;;;;;;402.33;272.73;;;;;;;14.06;69.44;100143.59;312399;31;4653;-71
2022/11/02 00:29:08;;;;;;;403.88;269.35;;;;;;;14.06;69.14;100148.84;309947;31;6385;-71
2022/11/02 00:29:20;;;;;;;406.30;266.40;;;;;;;14.08;69.35;100146.16;306711;31;3448;-71
2022/11/02 00:29:32;;;;;;;408.75;270.63;;;;;;;14.08;69.36;100147.00;304293;32;963;-71
2022/11/02 00:29:42;;;;;;;407.17;271.42;;;;;;;14.07;69.35;100142.66;304747;32;3358;-71
2022/11/02 00:29:52;;;;;;;402.63;274.37;;;;;;;14.07;69.47;100145.31;305767;31;4057;-70
2022/11/02 00:30:03;;;;;;;404.15;274.10;;;;;;;14.07;69.20;100145.31;306506;32;864;-72
2022/11/02 00:30:14;;;;;;;404.83;273.50;;;;;;;14.07;69.33;100144.44;303232;32;908;-71
2022/11/02 00:30:24;;;;;;;404.45;268.52;;;;;;;14.07;69.08;100144.44;299328;32;5661;-71
2022/11/02 00:30:36;;;;;;;402.50;267.30;;;;;;;14.08;69.10;100143.53;298652;32;6479;-71
2022/11/02 00:30:46;;;;;;;402.40;271.45;;;;;;;14.09;69.52;100143.44;299991;32;996;-71
2022/11/02 00:30:57;;;;;;;404.92;273.92;;;;;;;14.09;69.27;100138.19;299153;32;6807;-71
2022/11/02 00:31:07;;;;;;;405.77;270.13;;;;;;;14.07;69.12;100140.03;299968;32;6330;-71
2022/11/02 00:31:18;;;;;;;407.88;268.02;;;;;;;14.08;69.25;100144.38;300127;32;1420;-71
2022/11/02 00:31:28;;;;;;;407.53;266.13;;;;;;;14.07;68.88;100140.03;299198;32;6286;-71
2022/11/02 00:31:38;;;;;;;408.33;272.05;;;;;;;14.08;69.11;100141.75;296480;33;5088;-71
2022/11/02 00:31:49;;;;;;;410.90;274.73;;;;;;;14.09;69.23;100142.59;294946;32;5149;-71
2022/11/02 00:32:00;;;;;;;411.20;278.02;;;;;;;14.07;69.28;100137.41;297152;33;942;-71
2022/11/02 00:32:10;;;;;;;407.77;271.47;;;;;;;14.08;69.17;100140.88;289543;33;6837;-71
2022/11/02 00:32:20;;;;;;;402.58;268.17;;;;;;;14.07;69.40;100134.78;289908;33;7139;-71
2022/11/02 00:32:31;;;;;;;399.53;265.77;;;;;;;14.06;69.38;100138.31;294440;33;1545;-71
2022/11/02 00:32:41;;;;;;;400.80;269.90;;;;;;;14.05;69.04;100139.25;289201;33;7765;-70
2022/11/02 00:32:51;;;;;;;400.53;269.57;;;;;;;14.06;69.38;100138.31;289076;33;9069;-70
2022/11/02 00:33:02;;;;;;;404.65;273.98;;;;;;;14.07;69.32;100139.19;289247;34;1426;-70
2022/11/02 00:33:12;;;;;;;404.03;269.50;;;;;;;14.08;69.32;100136.47;286239;34;9324;-70
2022/11/02 00:33:23;;;;;;;404.17;270.10;;;;;;;14.07;69.13;100145.31;286689;34;9047;-70
2022/11/02 00:34:55;;;;;;;394.26;256.36;;;;;;;14.04;69.26;100140.19;2499058;27;20783;-70
2022/11/02 00:35:06;;;;;;;409.33;284.43;;;;;;;14.02;69.33;100135.91;350264;28;3931;-70
2022/11/02 00:35:16;;;;;;;408.10;283.45;;;;;;;14.01;69.05;100135.06;349628;28;3242;-70
2022/11/02 00:35:26;;;;;;;405.38;275.83;;;;;;;14.01;69.12;100137.69;348891;28;1995;-71
2022/11/02 00:35:37;;;;;;;402.43;269.70;;;;;;;14.03;69.50;100140.25;348806;28;1896;-71
2022/11/02 00:35:47;;;;;;;404.70;277.15;;;;;;;14.02;69.19;100142.03;348975;28;3059;-70
2022/11/02 00:35:58;;;;;;;403.00;275.37;;;;;;;14.02;69.29;100136.75;348997;28;953;-70
2022/11/02 00:36:08;;;;;;;404.97;278.17;;;;;;;14.01;69.36;100139.47;347562;28;924;-70
2022/11/02 00:36:19;;;;;;;403.65;273.95;;;;;;;14.01;69.21;100129.78;348224;28;830;-70
2022/11/02 00:36:30;;;;;;;404.90;276.52;;;;;;;14.01;69.40;100136.84;348983;28;1019;-70
2022/11/02 00:36:40;;;;;;;407.60;278.77;;;;;;;14.03;69.12;100143.72;346308;28;845;-70
2022/11/02 00:36:51;;;;;;;407.33;276.43;;;;;;;14.01;68.98;100135.06;347729;28;1483;-70
2022/11/02 00:37:01;;;;;;;407.60;275.20;;;;;;;14.02;69.25;100126.22;350386;28;1044;-70
2022/11/02 00:37:12;;;;;;;405.70;277.80;;;;;;;14.04;69.23;100128.78;350337;28;1519;-70
2022/11/02 00:37:22;;;;;;;406.05;277.40;;;;;;;14.04;69.13;100140.19;350307;28;1224;-70
2022/11/02 00:37:32;;;;;;;406.33;277.87;;;;;;;14.02;69.37;100136.75;350323;28;1196;-70
2022/11/02 00:37:43;;;;;;;405.88;277.13;;;;;;;14.03;69.22;100138.47;348855;28;1401;-70
2022/11/02 00:37:53;;;;;;;407.17;276.33;;;;;;;14.01;69.13;100131.56;348991;28;813;-70
2022/11/02 00:38:04;;;;;;;406.80;275.67;;;;;;;14.02;69.37;100139.41;347648;28;972;-70
2022/11/02 00:38:15;;;;;;;407.20;275.88;;;;;;;14.01;69.31;100134.19;348773;28;1111;-71
2022/11/02 00:38:25;;;;;;;403.77;274.30;;;;;;;14.02;69.25;100134.13;349041;28;1530;-70
2022/11/02 00:38:35;;;;;;;405.77;280.30;;;;;;;14.02;69.40;100136.75;348943;28;876;-70
2022/11/02 00:38:46;;;;;;;405.75;279.52;;;;;;;14.01;69.38;100131.56;348813;28;1086;-70
2022/11/02 00:38:56;;;;;;;405.30;278.00;;;;;;;14.01;69.27;100128.94;347388;28;1845;-72
2022/11/02 00:39:06;;;;;;;402.33;273.05;;;;;;;14.00;69.18;100135.97;347396;28;1937;-71
2022/11/02 00:39:17;;;;;;;405.40;269.77;;;;;;;14.00;69.24;100138.63;345708;28;1365;-71
2022/11/02 00:39:27;;;;;;;407.73;270.60;;;;;;;13.98;69.50;100140.47;347255;28;1339;-71
2022/11/02 00:39:38;;;;;;;410.83;270.27;;;;;;;13.95;69.56;100130.94;347199;28;1301;-71
2022/11/02 00:39:48;;;;;;;410.57;275.47;;;;;;;13.97;69.31;100133.50;344870;28;1215;-71
2022/11/02 00:39:58;;;;;;;408.75;277.67;;;;;;;13.98;69.26;100132.56;342268;28;966;-71
2022/11/02 00:40:10;;;;;;;404.90;277.97;;;;;;;13.99;69.34;100136.91;344704;28;1562;-71
2022/11/02 00:40:20;;;;;;;405.70;272.83;;;;;;;13.97;69.18;100133.50;344864;28;957;-71
2022/11/02 00:40:30;;;;;;;405.33;271.10;;;;;;;13.98;69.58;100129.94;343780;28;1868;-71
2022/11/02 00:40:41;;;;;;;403.65;271.83;;;;;;;13.97;69.52;100133.50;346189;28;1236;-71
2022/11/02 00:40:51;;;;;;;401.73;273.37;;;;;;;13.98;69.47;100132.56;345872;28;1089;-71
2022/11/02 00:41:02;;;;;;;403.73;273.88;;;;;;;13.97;69.15;100131.72;344897;28;1098;-71
2022/11/02 00:41:12;;;;;;;402.77;269.63;;;;;;;13.97;69.40;100136.13;343570;28;994;-71
2022/11/02 00:41:22;;;;;;;402.33;266.67;;;;;;;13.96;69.39;100131.78;343426;28;1175;-71
2022/11/02 00:41:33;;;;;;;400.13;264.70;;;;;;;13.95;69.71;100135.34;341845;28;1318;-71
2022/11/02 00:41:43;;;;;;;402.43;268.87;;;;;;;13.94;69.57;100129.22;342117;28;1530;-71
2022/11/02 00:41:54;;;;;;;404.13;270.48;;;;;;;13.94;69.60;100125.72;339608;29;872;-71
2022/11/02 00:42:04;;;;;;;404.60;271.07;;;;;;;13.93;69.60;100126.66;343567;28;907;-71
2022/11/02 00:42:15;;;;;;;404.58;271.17;;;;;;;13.93;69.88;100137.19;343194;28;1371;-71
2022/11/02 00:42:25;;;;;;;401.73;269.00;;;;;;;13.93;69.43;100131.91;340821;29;1278;-71
2022/11/02 00:42:36;;;;;;;402.33;269.57;;;;;;;13.94;69.34;100133.63;341666;28;1101;-71
2022/11/02 00:42:46;;;;;;;401.70;269.03;;;;;;;13.94;69.46;100138.88;340276;29;2044;-70
2022/11/02 00:42:57;;;;;;;406.15;272.15;;;;;;;13.93;69.84;100137.19;334390;29;1606;-70
2022/11/02 00:43:07;;;;;;;406.40;273.13;;;;;;;13.93;69.44;100137.19;335409;29;1289;-70
2022/11/02 00:43:17;;;;;;;406.30;273.70;;;;;;;13.93;69.62;100131.91;335169;29;1331;-70
2022/11/02 00:43:28;;;;;;;402.63;272.67;;;;;;;13.93;69.56;100129.28;339469;29;1581;-70
2022/11/02 00:43:38;;;;;;;402.75;276.25;;;;;;;13.92;69.47;100135.47;337033;28;1667;-70
2022/11/02 00:43:48;;;;;;;403.13;277.20;;;;;;;13.94;69.55;100133.63;335429;29;1917;-70
2022/11/02 00:43:59;;;;;;;400.83;274.98;;;;;;;13.93;69.55;100134.56;332945;29;1905;-70
2022/11/02 00:44:09;;;;;;;400.77;270.33;;;;;;;13.94;69.68;100133.63;333499;29;3353;-71
2022/11/02 00:44:20;;;;;;;401.90;268.27;;;;;;;13.93;69.43;100134.56;335406;29;4728;-71
2022/11/02 00:44:30;;;;;;;404.13;270.27;;;;;;;13.94;69.78;100133.63;336468;29;4880;-71
2022/11/02 00:44:40;;;;;;;405.57;276.60;;;;;;;13.92;69.56;100138.09;335474;29;1928;-71
2022/11/02 00:44:51;;;;;;;403.67;276.05;;;;;;;13.91;69.71;100139.03;337713;29;4972;-70
2022/11/02 00:45:01;;;;;;;401.70;273.77;;;;;;;13.91;69.79;100133.78;336497;29;1646;-70
2022/11/02 00:45:12;;;;;;;401.33;273.90;;;;;;;13.90;69.49;100137.31;336347;29;1074;-70
2022/11/02 00:45:22;;;;;;;403.93;273.83;;;;;;;13.90;69.53;100138.19;336150;29;1961;-70
2022/11/02 00:45:32;;;;;;;404.45;276.58;;;;;;;13.89;69.75;100140.88;336571;29;1966;-70
2022/11/02 00:45:43;;;;;;;404.03;274.27;;;;;;;13.87;70.09;100132.19;335429;29;1934;-70
2022/11/02 00:45:53;;;;;;;402.08;273.38;;;;;;;13.87;69.78;100135.69;335475;29;2291;-70
2022/11/02 00:46:04;;;;;;;403.30;268.57;;;;;;;13.88;69.86;100139.16;332066;29;1599;-70
2022/11/02 00:46:14;;;;;;;404.03;266.73;;;;;;;13.91;69.62;100141.66;332685;29;995;-70
2022/11/02 00:46:24;;;;;;;404.53;266.07;;;;;;;13.90;69.88;100135.53;331855;29;1659;-70
2022/11/02 00:46:35;;;;;;;403.00;268.60;;;;;;;13.88;69.90;100133.91;331574;29;1332;-70
2022/11/02 00:46:45;;;;;;;400.52;268.38;;;;;;;13.89;70.05;100138.25;330219;29;1579;-70
2022/11/02 00:46:56;;;;;;;401.17;270.27;;;;;;;13.88;69.46;100136.53;328198;30;1029;-70
2022/11/02 00:47:06;;;;;;;404.05;276.48;;;;;;;13.89;69.86;100136.47;330326;29;2006;-70
2022/11/02 00:47:16;;;;;;;405.30;280.23;;;;;;;13.88;70.02;100134.75;330397;29;2572;-70
2022/11/02 00:47:27;;;;;;;405.80;278.50;;;;;;;13.87;70.04;100134.84;329495;29;1993;-70
2022/11/02 00:47:37;;;;;;;404.05;270.00;;;;;;;13.88;69.75;100133.91;325012;29;2576;-70
2022/11/02 00:47:48;;;;;;;403.93;268.40;;;;;;;13.87;70.05;100132.19;325297;30;2744;-70
2022/11/02 00:47:59;;;;;;;408.35;272.92;;;;;;;13.87;69.79;100129.56;328213;30;1103;-70
2022/11/02 00:48:09;;;;;;;409.33;273.73;;;;;;;13.86;69.63;100135.78;331855;29;1538;-70
2022/11/02 00:48:19;;;;;;;410.23;273.83;;;;;;;13.85;69.81;100128.81;332290;29;2376;-70
2022/11/02 00:48:30;;;;;;;404.15;271.23;;;;;;;13.86;69.64;100130.53;329035;29;1230;-70
2022/11/02 00:48:40;;;;;;;402.57;273.30;;;;;;;13.86;69.56;100135.78;329451;30;956;-70
2022/11/02 00:48:51;;;;;;;401.73;271.13;;;;;;;13.86;69.80;100135.78;332393;29;1835;-70
2022/11/02 00:49:01;;;;;;;403.83;272.83;;;;;;;13.87;69.59;100132.19;330630;29;2454;-70
2022/11/02 00:49:11;;;;;;;407.67;274.02;;;;;;;13.84;69.88;100135.00;327360;30;1948;-71
2022/11/02 00:49:22;;;;;;;407.17;274.37;;;;;;;13.82;70.03;100123.69;328982;29;3026;-71
2022/11/02 00:49:32;;;;;;;406.65;273.75;;;;;;;13.83;70.00;100135.94;327818;29;3233;-71
2022/11/02 00:49:43;;;;;;;405.43;276.97;;;;;;;13.81;70.12;100137.78;328169;30;962;-70
2022/11/02 00:49:53;;;;;;;407.20;278.23;;;;;;;13.78;70.02;100135.28;326592;30;3203;-70
2022/11/02 00:50:04;;;;;;;407.17;281.37;;;;;;;13.76;70.16;100129.22;325159;30;3816;-70
2022/11/02 00:50:15;;;;;;;406.48;279.80;;;;;;;13.73;70.21;100134.63;321954;30;3050;-70
2022/11/02 00:50:25;;;;;;;406.70;281.88;;;;;;;13.69;70.35;100133.06;322127;30;868;-70
2022/11/02 00:50:35;;;;;;;405.83;280.77;;;;;;;13.68;70.75;100137.47;322771;30;2478;-71
2022/11/02 00:50:46;;;;;;;405.43;280.67;;;;;;;13.66;70.38;100128.78;322558;30;2115;-71
2022/11/02 00:50:56;;;;;;;405.13;280.77;;;;;;;13.67;70.34;100133.13;322031;30;1311;-71
2022/11/02 00:51:06;;;;;;;406.80;278.80;;;;;;;13.67;70.49;100135.75;323040;30;2596;-71
2022/11/02 00:51:17;;;;;;;412.45;278.10;;;;;;;13.67;70.36;100134.91;321111;30;3578;-71
2022/11/02 00:51:27;;;;;;;409.30;270.93;;;;;;;13.68;70.70;100136.63;319861;30;872;-71
2022/11/02 00:51:37;;;;;;;407.25;270.52;;;;;;;13.68;70.52;100131.34;319910;30;3662;-71